sensor_id;sensor_type;location;lat;lon;timestamp;P1;durP1;ratioP1;P2;durP2;ratioP2
80910;SDS011;70359;51.420;7.032;2023-11-21T00:01:20;3.4;;;3.1;;
80910;SDS011;70359;51.420;7.032;2023-11-21T00:03:45;3.4;;;3.1;;
80910;SDS011;70359;51.420;7.032;2023-11-21T00:06:15;3;;;2.7;;
80910;SDS011;70359;51.420;7.032;2023-11-21T00:08:35;3;;;2.7;;
80910;SDS011;70359;51.420;7.032;2023-11-21T00:11:00;2.8;;;2.4;;
80910;SDS011;70359;51.420;7.032;2023-11-21T00:13:26;2.8;;;2.4;;
80910;SDS011;70359;51.420;7.032;2023-11-21T00:15:50;3.7;;;2.9;;
80910;SDS011;70359;51.420;7.032;2023-11-21T00:18:15;3.7;;;2.9;;
80910;SDS011;70359;51.420;7.032;2023-11-21T00:20:40;5.4;;;3.4;;
80910;SDS011;70359;51.420;7.032;2023-11-21T00:23:05;5.4;;;3.4;;
80910;SDS011;70359;51.420;7.032;2023-11-21T00:25:34;3.4;;;2.9;;
80910;SDS011;70359;51.420;7.032;2023-11-21T00:27:55;3.4;;;2.9;;
80910;SDS011;70359;51.420;7.032;2023-11-21T00:30:20;4.6;;;3.3;;
80910;SDS011;70359;51.420;7.032;2023-11-21T00:32:50;4.6;;;3.3;;
80910;SDS011;70359;51.420;7.032;2023-11-21T00:35:14;3.5;;;3;;
80910;SDS011;70359;51.420;7.032;2023-11-21T00:37:35;3.5;;;3;;
80910;SDS011;70359;51.420;7.032;2023-11-21T00:40:00;3;;;2.7;;
80910;SDS011;70359;51.420;7.032;2023-11-21T00:42:25;3;;;2.7;;
80910;SDS011;70359;51.420;7.032;2023-11-21T00:44:51;3.2;;;2.9;;
80910;SDS011;70359;51.420;7.032;2023-11-21T00:47:15;3.2;;;2.9;;
80910;SDS011;70359;51.420;7.032;2023-11-21T00:49:41;3.2;;;2.9;;
80910;SDS011;70359;51.420;7.032;2023-11-21T00:52:06;3.7;;;3;;
80910;SDS011;70359;51.420;7.032;2023-11-21T00:54:34;3.7;;;3;;
80910;SDS011;70359;51.420;7.032;2023-11-21T00:56:55;4;;;3.6;;
80910;SDS011;70359;51.420;7.032;2023-11-21T00:59:25;4;;;3.6;;
80910;SDS011;70359;51.420;7.032;2023-11-21T01:01:46;7.7;;;4.2;;
80910;SDS011;70359;51.420;7.032;2023-11-21T01:04:10;7.7;;;4.2;;
80910;SDS011;70359;51.420;7.032;2023-11-21T01:06:35;3.6;;;3.3;;
80910;SDS011;70359;51.420;7.032;2023-11-21T01:09:00;3.6;;;3.3;;
80910;SDS011;70359;51.420;7.032;2023-11-21T01:11:26;5.7;;;3.9;;
80910;SDS011;70359;51.420;7.032;2023-11-21T01:13:54;5.7;;;3.9;;
80910;SDS011;70359;51.420;7.032;2023-11-21T01:16:20;4.1;;;3.5;;
80910;SDS011;70359;51.420;7.032;2023-11-21T01:18:44;4.1;;;3.5;;
80910;SDS011;70359;51.420;7.032;2023-11-21T01:21:06;14.3;;;4.4;;
80910;SDS011;70359;51.420;7.032;2023-11-21T01:23:31;14.3;;;4.4;;
80910;SDS011;70359;51.420;7.032;2023-11-21T01:25:56;4.4;;;3.4;;
80910;SDS011;70359;51.420;7.032;2023-11-21T01:28:21;4.4;;;3.4;;
80910;SDS011;70359;51.420;7.032;2023-11-21T01:30:45;4.7;;;3.6;;
80910;SDS011;70359;51.420;7.032;2023-11-21T01:33:11;4.7;;;3.6;;
80910;SDS011;70359;51.420;7.032;2023-11-21T01:35:40;4.2;;;3.4;;
80910;SDS011;70359;51.420;7.032;2023-11-21T01:38:01;4.2;;;3.4;;
80910;SDS011;70359;51.420;7.032;2023-11-21T01:40:29;3.5;;;3.2;;
80910;SDS011;70359;51.420;7.032;2023-11-21T01:42:57;3.5;;;3.2;;
80910;SDS011;70359;51.420;7.032;2023-11-21T01:45:20;3.5;;;3.2;;
80910;SDS011;70359;51.420;7.032;2023-11-21T01:47:41;3.5;;;3.2;;
80910;SDS011;70359;51.420;7.032;2023-11-21T01:50:06;3.4;;;3;;
80910;SDS011;70359;51.420;7.032;2023-11-21T01:52:35;3.4;;;3;;
80910;SDS011;70359;51.420;7.032;2023-11-21T01:54:56;3.8;;;3.4;;
80910;SDS011;70359;51.420;7.032;2023-11-21T01:57:21;3.8;;;3.4;;
80910;SDS011;70359;51.420;7.032;2023-11-21T01:59:48;3.8;;;3.4;;
80910;SDS011;70359;51.420;7.032;2023-11-21T02:02:11;4.8;;;3.3;;
80910;SDS011;70359;51.420;7.032;2023-11-21T02:04:36;4.8;;;3.3;;
80910;SDS011;70359;51.420;7.032;2023-11-21T02:07:01;6.8;;;3.5;;
80910;SDS011;70359;51.420;7.032;2023-11-21T02:09:28;6.8;;;3.5;;
80910;SDS011;70359;51.420;7.032;2023-11-21T02:11:51;4.3;;;3.6;;
80910;SDS011;70359;51.420;7.032;2023-11-21T02:14:16;4.3;;;3.6;;
80910;SDS011;70359;51.420;7.032;2023-11-21T02:16:45;5.6;;;3.4;;
80910;SDS011;70359;51.420;7.032;2023-11-21T02:19:07;5.6;;;3.4;;
80910;SDS011;70359;51.420;7.032;2023-11-21T02:21:35;6.6;;;3.6;;
80910;SDS011;70359;51.420;7.032;2023-11-21T02:23:56;6.6;;;3.6;;
80910;SDS011;70359;51.420;7.032;2023-11-21T02:26:21;4.5;;;3.5;;
80910;SDS011;70359;51.420;7.032;2023-11-21T02:28:46;4.5;;;3.5;;
80910;SDS011;70359;51.420;7.032;2023-11-21T02:31:11;5.7;;;3.4;;
80910;SDS011;70359;51.420;7.032;2023-11-21T02:33:40;5.7;;;3.4;;
80910;SDS011;70359;51.420;7.032;2023-11-21T02:36:01;5.1;;;3.7;;
80910;SDS011;70359;51.420;7.032;2023-11-21T02:38:26;5.1;;;3.7;;
80910;SDS011;70359;51.420;7.032;2023-11-21T02:40:51;3.7;;;3.4;;
80910;SDS011;70359;51.420;7.032;2023-11-21T02:43:16;3.7;;;3.4;;
80910;SDS011;70359;51.420;7.032;2023-11-21T02:45:45;5;;;3.5;;
80910;SDS011;70359;51.420;7.032;2023-11-21T02:48:06;5;;;3.5;;
80910;SDS011;70359;51.420;7.032;2023-11-21T02:50:35;4.7;;;3.8;;
80910;SDS011;70359;51.420;7.032;2023-11-21T02:52:56;4.7;;;3.8;;
80910;SDS011;70359;51.420;7.032;2023-11-21T02:55:25;3.7;;;3.4;;
80910;SDS011;70359;51.420;7.032;2023-11-21T02:57:50;3.7;;;3.4;;
80910;SDS011;70359;51.420;7.032;2023-11-21T03:00:11;6.2;;;3.6;;
80910;SDS011;70359;51.420;7.032;2023-11-21T03:02:40;6.2;;;3.6;;
80910;SDS011;70359;51.420;7.032;2023-11-21T03:05:01;4.2;;;3.4;;
80910;SDS011;70359;51.420;7.032;2023-11-21T03:07:26;4.2;;;3.4;;
80910;SDS011;70359;51.420;7.032;2023-11-21T03:09:51;4.2;;;3.4;;
80910;SDS011;70359;51.420;7.032;2023-11-21T03:12:16;5;;;3.3;;
80910;SDS011;70359;51.420;7.032;2023-11-21T03:14:41;5;;;3.3;;
80910;SDS011;70359;51.420;7.032;2023-11-21T03:17:06;5.4;;;3.8;;
80910;SDS011;70359;51.420;7.032;2023-11-21T03:19:31;5.4;;;3.8;;
80910;SDS011;70359;51.420;7.032;2023-11-21T03:21:56;6.8;;;3.4;;
80910;SDS011;70359;51.420;7.032;2023-11-21T03:24:21;6.8;;;3.4;;
80910;SDS011;70359;51.420;7.032;2023-11-21T03:26:46;6;;;4.1;;
80910;SDS011;70359;51.420;7.032;2023-11-21T03:29:11;6;;;4.1;;
80910;SDS011;70359;51.420;7.032;2023-11-21T03:31:36;3.7;;;3.3;;
80910;SDS011;70359;51.420;7.032;2023-11-21T03:34:01;3.7;;;3.3;;
80910;SDS011;70359;51.420;7.032;2023-11-21T03:36:26;3.5;;;3.2;;
80910;SDS011;70359;51.420;7.032;2023-11-21T03:38:51;3.5;;;3.2;;
80910;SDS011;70359;51.420;7.032;2023-11-21T03:41:20;5.7;;;3.1;;
80910;SDS011;70359;51.420;7.032;2023-11-21T03:43:45;5.7;;;3.1;;
80910;SDS011;70359;51.420;7.032;2023-11-21T03:46:06;10.3;;;3.1;;
80910;SDS011;70359;51.420;7.032;2023-11-21T03:48:31;10.3;;;3.1;;
80910;SDS011;70359;51.420;7.032;2023-11-21T03:50:56;6;;;3.2;;
80910;SDS011;70359;51.420;7.032;2023-11-21T03:53:21;6;;;3.2;;
80910;SDS011;70359;51.420;7.032;2023-11-21T03:55:46;3.7;;;3.3;;
80910;SDS011;70359;51.420;7.032;2023-11-21T03:58:11;3.7;;;3.3;;
80910;SDS011;70359;51.420;7.032;2023-11-21T04:00:36;15.3;;;3.4;;
80910;SDS011;70359;51.420;7.032;2023-11-21T04:03:01;15.3;;;3.4;;
80910;SDS011;70359;51.420;7.032;2023-11-21T04:05:26;3.5;;;3.1;;
80910;SDS011;70359;51.420;7.032;2023-11-21T04:07:51;3.5;;;3.1;;
80910;SDS011;70359;51.420;7.032;2023-11-21T04:10:16;3;;;2.8;;
80910;SDS011;70359;51.420;7.032;2023-11-21T04:12:41;3;;;2.8;;
80910;SDS011;70359;51.420;7.032;2023-11-21T04:15:07;5.5;;;3.4;;
80910;SDS011;70359;51.420;7.032;2023-11-21T04:17:31;5.5;;;3.4;;
80910;SDS011;70359;51.420;7.032;2023-11-21T04:19:56;3;;;2.7;;
80910;SDS011;70359;51.420;7.032;2023-11-21T04:22:21;3;;;2.7;;
80910;SDS011;70359;51.420;7.032;2023-11-21T04:24:46;3;;;2.7;;
80910;SDS011;70359;51.420;7.032;2023-11-21T04:27:11;6.7;;;3.9;;
80910;SDS011;70359;51.420;7.032;2023-11-21T04:29:36;6.7;;;3.9;;
80910;SDS011;70359;51.420;7.032;2023-11-21T04:32:01;5.2;;;3.7;;
80910;SDS011;70359;51.420;7.032;2023-11-21T04:34:26;5.2;;;3.7;;
80910;SDS011;70359;51.420;7.032;2023-11-21T04:36:51;3.6;;;3.3;;
80910;SDS011;70359;51.420;7.032;2023-11-21T04:39:16;3.6;;;3.3;;
80910;SDS011;70359;51.420;7.032;2023-11-21T04:41:41;4.2;;;3.4;;
80910;SDS011;70359;51.420;7.032;2023-11-21T04:44:06;4.2;;;3.4;;
80910;SDS011;70359;51.420;7.032;2023-11-21T04:46:31;4.6;;;3.7;;
80910;SDS011;70359;51.420;7.032;2023-11-21T04:48:56;4.6;;;3.7;;
80910;SDS011;70359;51.420;7.032;2023-11-21T04:51:21;5.2;;;4.2;;
80910;SDS011;70359;51.420;7.032;2023-11-21T04:53:46;5.2;;;4.2;;
80910;SDS011;70359;51.420;7.032;2023-11-21T04:56:11;4;;;3.6;;
80910;SDS011;70359;51.420;7.032;2023-11-21T04:58:36;4;;;3.6;;
80910;SDS011;70359;51.420;7.032;2023-11-21T05:01:01;6.8;;;4.4;;
80910;SDS011;70359;51.420;7.032;2023-11-21T05:03:26;6.8;;;4.4;;
80910;SDS011;70359;51.420;7.032;2023-11-21T05:05:51;4.6;;;3.8;;
80910;SDS011;70359;51.420;7.032;2023-11-21T05:08:16;4.6;;;3.8;;
80910;SDS011;70359;51.420;7.032;2023-11-21T05:10:45;4;;;3.6;;
80910;SDS011;70359;51.420;7.032;2023-11-21T05:13:06;4;;;3.6;;
80910;SDS011;70359;51.420;7.032;2023-11-21T05:15:31;8.4;;;4.5;;
80910;SDS011;70359;51.420;7.032;2023-11-21T05:18:00;8.4;;;4.5;;
80910;SDS011;70359;51.420;7.032;2023-11-21T05:20:21;5.6;;;4.3;;
80910;SDS011;70359;51.420;7.032;2023-11-21T05:22:50;5.6;;;4.3;;
80910;SDS011;70359;51.420;7.032;2023-11-21T05:25:12;4.4;;;4;;
80910;SDS011;70359;51.420;7.032;2023-11-21T05:27:36;4.4;;;4;;
80910;SDS011;70359;51.420;7.032;2023-11-21T05:30:02;5.2;;;4.1;;
80910;SDS011;70359;51.420;7.032;2023-11-21T05:32:26;5.2;;;4.1;;
80910;SDS011;70359;51.420;7.032;2023-11-21T05:34:51;5.2;;;4.1;;
80910;SDS011;70359;51.420;7.032;2023-11-21T05:37:16;4.3;;;3.6;;
80910;SDS011;70359;51.420;7.032;2023-11-21T05:39:41;4.3;;;3.6;;
80910;SDS011;70359;51.420;7.032;2023-11-21T05:42:06;6.2;;;4.2;;
80910;SDS011;70359;51.420;7.032;2023-11-21T05:44:35;6.2;;;4.2;;
80910;SDS011;70359;51.420;7.032;2023-11-21T05:46:56;5.3;;;4.1;;
80910;SDS011;70359;51.420;7.032;2023-11-21T05:49:21;5.3;;;4.1;;
80910;SDS011;70359;51.420;7.032;2023-11-21T05:51:46;5;;;3.9;;
80910;SDS011;70359;51.420;7.032;2023-11-21T05:54:15;5;;;3.9;;
80910;SDS011;70359;51.420;7.032;2023-11-21T05:56:36;6.4;;;4.8;;
80910;SDS011;70359;51.420;7.032;2023-11-21T05:59:01;6.4;;;4.8;;
80910;SDS011;70359;51.420;7.032;2023-11-21T06:01:26;5.1;;;4.6;;
80910;SDS011;70359;51.420;7.032;2023-11-21T06:03:51;5.1;;;4.6;;
80910;SDS011;70359;51.420;7.032;2023-11-21T06:06:16;5.6;;;5;;
80910;SDS011;70359;51.420;7.032;2023-11-21T06:08:41;5.6;;;5;;
80910;SDS011;70359;51.420;7.032;2023-11-21T06:11:06;5.8;;;4.7;;
80910;SDS011;70359;51.420;7.032;2023-11-21T06:13:35;5.8;;;4.7;;
80910;SDS011;70359;51.420;7.032;2023-11-21T06:16:00;6.4;;;4.8;;
80910;SDS011;70359;51.420;7.032;2023-11-21T06:18:25;6.4;;;4.8;;
80910;SDS011;70359;51.420;7.032;2023-11-21T06:20:50;8.8;;;5.6;;
80910;SDS011;70359;51.420;7.032;2023-11-21T06:23:15;8.8;;;5.6;;
80910;SDS011;70359;51.420;7.032;2023-11-21T06:25:40;5.5;;;4.9;;
80910;SDS011;70359;51.420;7.032;2023-11-21T06:28:01;5.5;;;4.9;;
80910;SDS011;70359;51.420;7.032;2023-11-21T06:30:26;6.3;;;5.2;;
80910;SDS011;70359;51.420;7.032;2023-11-21T06:32:51;6.3;;;5.2;;
80910;SDS011;70359;51.420;7.032;2023-11-21T06:35:16;5;;;4.5;;
80910;SDS011;70359;51.420;7.032;2023-11-21T06:37:41;5;;;4.5;;
80910;SDS011;70359;51.420;7.032;2023-11-21T06:40:11;6.8;;;5.4;;
80910;SDS011;70359;51.420;7.032;2023-11-21T06:42:31;6.8;;;5.4;;
80910;SDS011;70359;51.420;7.032;2023-11-21T06:44:58;7.4;;;5.6;;
80910;SDS011;70359;51.420;7.032;2023-11-21T06:47:21;7.4;;;5.6;;
80910;SDS011;70359;51.420;7.032;2023-11-21T06:49:50;7.4;;;5.6;;
80910;SDS011;70359;51.420;7.032;2023-11-21T06:52:11;9;;;5.7;;
80910;SDS011;70359;51.420;7.032;2023-11-21T06:54:36;9;;;5.7;;
80910;SDS011;70359;51.420;7.032;2023-11-21T06:57:01;7.5;;;5.5;;
80910;SDS011;70359;51.420;7.032;2023-11-21T06:59:28;7.5;;;5.5;;
80910;SDS011;70359;51.420;7.032;2023-11-21T07:01:51;6.4;;;5.5;;
80910;SDS011;70359;51.420;7.032;2023-11-21T07:04:16;6.4;;;5.5;;
80910;SDS011;70359;51.420;7.032;2023-11-21T07:06:41;7.8;;;6.1;;
80910;SDS011;70359;51.420;7.032;2023-11-21T07:09:07;7.8;;;6.1;;
80910;SDS011;70359;51.420;7.032;2023-11-21T07:11:31;6.7;;;5.2;;
80910;SDS011;70359;51.420;7.032;2023-11-21T07:13:56;6.7;;;5.2;;
80910;SDS011;70359;51.420;7.032;2023-11-21T07:16:21;7.6;;;5.8;;
80910;SDS011;70359;51.420;7.032;2023-11-21T07:18:46;7.6;;;5.8;;
80910;SDS011;70359;51.420;7.032;2023-11-21T07:21:11;7.1;;;5.8;;
80910;SDS011;70359;51.420;7.032;2023-11-21T07:23:36;7.1;;;5.8;;
80910;SDS011;70359;51.420;7.032;2023-11-21T07:26:01;7.2;;;6.4;;
80910;SDS011;70359;51.420;7.032;2023-11-21T07:28:26;7.2;;;6.4;;
80910;SDS011;70359;51.420;7.032;2023-11-21T07:30:51;6.8;;;6;;
80910;SDS011;70359;51.420;7.032;2023-11-21T07:33:16;6.8;;;6;;
80910;SDS011;70359;51.420;7.032;2023-11-21T07:35:45;6.3;;;5.6;;
80910;SDS011;70359;51.420;7.032;2023-11-21T07:38:06;6.3;;;5.6;;
80910;SDS011;70359;51.420;7.032;2023-11-21T07:40:31;9.3;;;7;;
80910;SDS011;70359;51.420;7.032;2023-11-21T07:42:56;9.3;;;7;;
80910;SDS011;70359;51.420;7.032;2023-11-21T07:45:25;13.7;;;7.6;;
80910;SDS011;70359;51.420;7.032;2023-11-21T07:47:50;13.7;;;7.6;;
80910;SDS011;70359;51.420;7.032;2023-11-21T07:50:12;14.1;;;8;;
80910;SDS011;70359;51.420;7.032;2023-11-21T07:52:36;14.1;;;8;;
80910;SDS011;70359;51.420;7.032;2023-11-21T07:55:02;11;;;7.8;;
80910;SDS011;70359;51.420;7.032;2023-11-21T07:57:26;11;;;7.8;;
80910;SDS011;70359;51.420;7.032;2023-11-21T07:59:51;11;;;7.8;;
80910;SDS011;70359;51.420;7.032;2023-11-21T08:02:16;9.6;;;7.6;;
80910;SDS011;70359;51.420;7.032;2023-11-21T08:04:41;9.6;;;7.6;;
80910;SDS011;70359;51.420;7.032;2023-11-21T08:07:06;10.6;;;8;;
80910;SDS011;70359;51.420;7.032;2023-11-21T08:09:31;10.6;;;8;;
80910;SDS011;70359;51.420;7.032;2023-11-21T08:12:00;13.6;;;8.2;;
80910;SDS011;70359;51.420;7.032;2023-11-21T08:14:21;13.6;;;8.2;;
80910;SDS011;70359;51.420;7.032;2023-11-21T08:16:50;12.4;;;8.7;;
80910;SDS011;70359;51.420;7.032;2023-11-21T08:19:11;12.4;;;8.7;;
80910;SDS011;70359;51.420;7.032;2023-11-21T08:21:40;12.2;;;8.2;;
80910;SDS011;70359;51.420;7.032;2023-11-21T08:24:01;12.2;;;8.2;;
80910;SDS011;70359;51.420;7.032;2023-11-21T08:26:26;10.7;;;8.2;;
80910;SDS011;70359;51.420;7.032;2023-11-21T08:28:51;10.7;;;8.2;;
80910;SDS011;70359;51.420;7.032;2023-11-21T08:31:22;13.5;;;8.3;;
80910;SDS011;70359;51.420;7.032;2023-11-21T08:33:41;13.5;;;8.3;;
80910;SDS011;70359;51.420;7.032;2023-11-21T08:36:10;8.8;;;7.5;;
80910;SDS011;70359;51.420;7.032;2023-11-21T08:38:31;8.8;;;7.5;;
80910;SDS011;70359;51.420;7.032;2023-11-21T08:40:56;12.8;;;8.2;;
80910;SDS011;70359;51.420;7.032;2023-11-21T08:43:21;12.8;;;8.2;;
80910;SDS011;70359;51.420;7.032;2023-11-21T08:45:50;11.8;;;8.4;;
80910;SDS011;70359;51.420;7.032;2023-11-21T08:48:11;11.8;;;8.4;;
80910;SDS011;70359;51.420;7.032;2023-11-21T08:50:37;9.8;;;7.9;;
80910;SDS011;70359;51.420;7.032;2023-11-21T08:53:01;9.8;;;7.9;;
80910;SDS011;70359;51.420;7.032;2023-11-21T08:55:26;16.1;;;9.7;;
80910;SDS011;70359;51.420;7.032;2023-11-21T08:57:51;16.1;;;9.7;;
80910;SDS011;70359;51.420;7.032;2023-11-21T09:00:21;14.4;;;10.6;;
80910;SDS011;70359;51.420;7.032;2023-11-21T09:02:42;14.4;;;10.6;;
80910;SDS011;70359;51.420;7.032;2023-11-21T09:05:07;15.1;;;10.9;;
80910;SDS011;70359;51.420;7.032;2023-11-21T09:07:31;15.1;;;10.9;;
80910;SDS011;70359;51.420;7.032;2023-11-21T09:09:57;15.1;;;10.9;;
80910;SDS011;70359;51.420;7.032;2023-11-21T09:12:22;18.8;;;11.6;;
80910;SDS011;70359;51.420;7.032;2023-11-21T09:14:47;18.8;;;11.6;;
80910;SDS011;70359;51.420;7.032;2023-11-21T09:17:12;18.1;;;11.4;;
80910;SDS011;70359;51.420;7.032;2023-11-21T09:19:41;18.1;;;11.4;;
80910;SDS011;70359;51.420;7.032;2023-11-21T09:22:02;22.3;;;12.5;;
80910;SDS011;70359;51.420;7.032;2023-11-21T09:24:27;22.3;;;12.5;;
80910;SDS011;70359;51.420;7.032;2023-11-21T09:26:52;15.4;;;11.2;;
80910;SDS011;70359;51.420;7.032;2023-11-21T09:29:17;15.4;;;11.2;;
80910;SDS011;70359;51.420;7.032;2023-11-21T09:31:42;16.9;;;11;;
80910;SDS011;70359;51.420;7.032;2023-11-21T09:34:07;16.9;;;11;;
80910;SDS011;70359;51.420;7.032;2023-11-21T09:36:32;16.4;;;12;;
80910;SDS011;70359;51.420;7.032;2023-11-21T09:38:57;16.4;;;12;;
80910;SDS011;70359;51.420;7.032;2023-11-21T09:41:28;18.9;;;11.2;;
80910;SDS011;70359;51.420;7.032;2023-11-21T09:43:49;18.9;;;11.2;;
80910;SDS011;70359;51.420;7.032;2023-11-21T09:46:16;21.3;;;11.7;;
80910;SDS011;70359;51.420;7.032;2023-11-21T09:48:38;21.3;;;11.7;;
80910;SDS011;70359;51.420;7.032;2023-11-21T09:51:02;18.2;;;11.3;;
80910;SDS011;70359;51.420;7.032;2023-11-21T09:53:27;18.2;;;11.3;;
80910;SDS011;70359;51.420;7.032;2023-11-21T09:55:53;17.2;;;11.7;;
80910;SDS011;70359;51.420;7.032;2023-11-21T09:58:17;17.2;;;11.7;;
80910;SDS011;70359;51.420;7.032;2023-11-21T10:00:44;24.2;;;12.2;;
80910;SDS011;70359;51.420;7.032;2023-11-21T10:03:11;24.2;;;12.2;;
80910;SDS011;70359;51.420;7.032;2023-11-21T10:05:32;17.5;;;10.9;;
80910;SDS011;70359;51.420;7.032;2023-11-21T10:08:01;17.5;;;10.9;;
80910;SDS011;70359;51.420;7.032;2023-11-21T10:10:22;19.7;;;11.6;;
80910;SDS011;70359;51.420;7.032;2023-11-21T10:12:49;19.7;;;11.6;;
80910;SDS011;70359;51.420;7.032;2023-11-21T10:15:12;19.3;;;12.9;;
80910;SDS011;70359;51.420;7.032;2023-11-21T10:17:38;19.3;;;12.9;;
80910;SDS011;70359;51.420;7.032;2023-11-21T10:20:05;19.7;;;13;;
80910;SDS011;70359;51.420;7.032;2023-11-21T10:22:27;19.7;;;13;;
80910;SDS011;70359;51.420;7.032;2023-11-21T10:24:56;19.7;;;13;;
80910;SDS011;70359;51.420;7.032;2023-11-21T10:27:17;21.3;;;12.6;;
80910;SDS011;70359;51.420;7.032;2023-11-21T10:29:42;21.3;;;12.6;;
80910;SDS011;70359;51.420;7.032;2023-11-21T10:32:11;24.7;;;13.7;;
80910;SDS011;70359;51.420;7.032;2023-11-21T10:34:33;24.7;;;13.7;;
80910;SDS011;70359;51.420;7.032;2023-11-21T10:36:57;18.9;;;12.3;;
80910;SDS011;70359;51.420;7.032;2023-11-21T10:39:22;18.9;;;12.3;;
80910;SDS011;70359;51.420;7.032;2023-11-21T10:41:48;19.4;;;12.3;;
80910;SDS011;70359;51.420;7.032;2023-11-21T10:44:13;19.4;;;12.3;;
80910;SDS011;70359;51.420;7.032;2023-11-21T10:46:37;17.6;;;11;;
80910;SDS011;70359;51.420;7.032;2023-11-21T10:49:06;17.6;;;11;;
80910;SDS011;70359;51.420;7.032;2023-11-21T10:51:27;20.8;;;11.6;;
80910;SDS011;70359;51.420;7.032;2023-11-21T10:53:52;20.8;;;11.6;;
80910;SDS011;70359;51.420;7.032;2023-11-21T10:56:18;23.6;;;11.7;;
80910;SDS011;70359;51.420;7.032;2023-11-21T10:58:42;23.6;;;11.7;;
80910;SDS011;70359;51.420;7.032;2023-11-21T11:01:07;18.1;;;11.8;;
80910;SDS011;70359;51.420;7.032;2023-11-21T11:03:32;18.1;;;11.8;;
80910;SDS011;70359;51.420;7.032;2023-11-21T11:05:57;19.4;;;9.8;;
80910;SDS011;70359;51.420;7.032;2023-11-21T11:08:26;19.4;;;9.8;;
80910;SDS011;70359;51.420;7.032;2023-11-21T11:10:50;19.8;;;11.5;;
80910;SDS011;70359;51.420;7.032;2023-11-21T11:13:12;19.8;;;11.5;;
80910;SDS011;70359;51.420;7.032;2023-11-21T11:15:37;24;;;11.5;;
80910;SDS011;70359;51.420;7.032;2023-11-21T11:18:02;24;;;11.5;;
80910;SDS011;70359;51.420;7.032;2023-11-21T11:20:31;21.2;;;11.5;;
80910;SDS011;70359;51.420;7.032;2023-11-21T11:22:56;21.2;;;11.5;;
80910;SDS011;70359;51.420;7.032;2023-11-21T11:25:37;16.8;;;11.1;;
80910;SDS011;70359;51.420;7.032;2023-11-21T11:27:48;16.8;;;11.1;;
80910;SDS011;70359;51.420;7.032;2023-11-21T11:30:15;21.4;;;11.6;;
80910;SDS011;70359;51.420;7.032;2023-11-21T11:32:38;21.4;;;11.6;;
80910;SDS011;70359;51.420;7.032;2023-11-21T11:35:01;21.4;;;11.6;;
80910;SDS011;70359;51.420;7.032;2023-11-21T11:37:22;22.8;;;13;;
80910;SDS011;70359;51.420;7.032;2023-11-21T11:39:49;22.8;;;13;;
80910;SDS011;70359;51.420;7.032;2023-11-21T11:42:13;17.3;;;11.7;;
80910;SDS011;70359;51.420;7.032;2023-11-21T11:44:57;17.3;;;11.7;;
80910;SDS011;70359;51.420;7.032;2023-11-21T11:47:02;17.8;;;12.6;;
80910;SDS011;70359;51.420;7.032;2023-11-21T11:49:27;17.8;;;12.6;;
80910;SDS011;70359;51.420;7.032;2023-11-21T11:54:38;19.7;;;11.7;;
80910;SDS011;70359;51.420;7.032;2023-11-21T11:56:42;17.2;;;11.5;;
80910;SDS011;70359;51.420;7.032;2023-11-21T11:59:07;17.2;;;11.5;;
80910;SDS011;70359;51.420;7.032;2023-11-21T12:01:36;16.2;;;11.3;;
80910;SDS011;70359;51.420;7.032;2023-11-21T12:04:27;16.2;;;11.3;;
80910;SDS011;70359;51.420;7.032;2023-11-21T12:06:30;12.3;;;8.8;;
80910;SDS011;70359;51.420;7.032;2023-11-21T12:08:47;12.3;;;8.8;;
80910;SDS011;70359;51.420;7.032;2023-11-21T12:11:12;11.8;;;9.5;;
80910;SDS011;70359;51.420;7.032;2023-11-21T12:13:38;11.8;;;9.5;;
80910;SDS011;70359;51.420;7.032;2023-11-21T12:16:03;19.3;;;11.4;;
80910;SDS011;70359;51.420;7.032;2023-11-21T12:18:27;19.3;;;11.4;;
80910;SDS011;70359;51.420;7.032;2023-11-21T12:20:52;15.6;;;10.1;;
80910;SDS011;70359;51.420;7.032;2023-11-21T12:23:21;15.6;;;10.1;;
80910;SDS011;70359;51.420;7.032;2023-11-21T12:25:46;15.3;;;10.3;;
80910;SDS011;70359;51.420;7.032;2023-11-21T12:28:07;15.3;;;10.3;;
80910;SDS011;70359;51.420;7.032;2023-11-21T12:30:33;19;;;11.4;;
80910;SDS011;70359;51.420;7.032;2023-11-21T12:32:58;19;;;11.4;;
80910;SDS011;70359;51.420;7.032;2023-11-21T12:35:24;16;;;11.9;;
80910;SDS011;70359;51.420;7.032;2023-11-21T12:37:47;16;;;11.9;;
80910;SDS011;70359;51.420;7.032;2023-11-21T12:40:17;20.1;;;13;;
80910;SDS011;70359;51.420;7.032;2023-11-21T12:42:43;20.1;;;13;;
80910;SDS011;70359;51.420;7.032;2023-11-21T12:45:18;20.1;;;13;;
80910;SDS011;70359;51.420;7.032;2023-11-21T12:47:33;20.3;;;13.4;;
80910;SDS011;70359;51.420;7.032;2023-11-21T12:49:52;20.3;;;13.4;;
80910;SDS011;70359;51.420;7.032;2023-11-21T12:52:17;21.4;;;15.4;;
80910;SDS011;70359;51.420;7.032;2023-11-21T12:54:43;21.4;;;15.4;;
80910;SDS011;70359;51.420;7.032;2023-11-21T12:57:11;17.4;;;13.4;;
80910;SDS011;70359;51.420;7.032;2023-11-21T12:59:32;17.4;;;13.4;;
80910;SDS011;70359;51.420;7.032;2023-11-21T13:01:57;20.1;;;14.4;;
80910;SDS011;70359;51.420;7.032;2023-11-21T13:04:29;20.1;;;14.4;;
80910;SDS011;70359;51.420;7.032;2023-11-21T13:06:51;19.9;;;13.1;;
80910;SDS011;70359;51.420;7.032;2023-11-21T13:09:12;19.9;;;13.1;;
80910;SDS011;70359;51.420;7.032;2023-11-21T13:11:38;19.4;;;12.3;;
80910;SDS011;70359;51.420;7.032;2023-11-21T13:14:06;19.4;;;12.3;;
80910;SDS011;70359;51.420;7.032;2023-11-21T13:16:27;13;;;10;;
80910;SDS011;70359;51.420;7.032;2023-11-21T13:18:56;13;;;10;;
80910;SDS011;70359;51.420;7.032;2023-11-21T13:21:17;11.3;;;9.2;;
80910;SDS011;70359;51.420;7.032;2023-11-21T13:23:42;11.3;;;9.2;;
80910;SDS011;70359;51.420;7.032;2023-11-21T13:26:09;9.8;;;8.4;;
80910;SDS011;70359;51.420;7.032;2023-11-21T13:28:32;9.8;;;8.4;;
80910;SDS011;70359;51.420;7.032;2023-11-21T13:31:01;10.4;;;8;;
80910;SDS011;70359;51.420;7.032;2023-11-21T13:33:26;10.4;;;8;;
80910;SDS011;70359;51.420;7.032;2023-11-21T13:35:47;8.5;;;7;;
80910;SDS011;70359;51.420;7.032;2023-11-21T13:38:13;8.5;;;7;;
80910;SDS011;70359;51.420;7.032;2023-11-21T13:40:39;7;;;6.3;;
80910;SDS011;70359;51.420;7.032;2023-11-21T13:43:02;7;;;6.3;;
80910;SDS011;70359;51.420;7.032;2023-11-21T13:45:27;8.4;;;6.7;;
80910;SDS011;70359;51.420;7.032;2023-11-21T13:47:53;8.4;;;6.7;;
80910;SDS011;70359;51.420;7.032;2023-11-21T13:50:17;6.6;;;6;;
80910;SDS011;70359;51.420;7.032;2023-11-21T13:52:42;6.6;;;6;;
80910;SDS011;70359;51.420;7.032;2023-11-21T13:55:07;6.6;;;6;;
80910;SDS011;70359;51.420;7.032;2023-11-21T13:57:33;9.1;;;6.3;;
80910;SDS011;70359;51.420;7.032;2023-11-21T13:59:57;9.1;;;6.3;;
80910;SDS011;70359;51.420;7.032;2023-11-21T14:02:22;8;;;6.1;;
80910;SDS011;70359;51.420;7.032;2023-11-21T14:04:47;8;;;6.1;;
80910;SDS011;70359;51.420;7.032;2023-11-21T14:07:12;7.5;;;6.2;;
80910;SDS011;70359;51.420;7.032;2023-11-21T14:09:37;7.5;;;6.2;;
80910;SDS011;70359;51.420;7.032;2023-11-21T14:12:02;7.1;;;5.8;;
80910;SDS011;70359;51.420;7.032;2023-11-21T14:14:27;7.1;;;5.8;;
80910;SDS011;70359;51.420;7.032;2023-11-21T14:16:52;7.1;;;5.5;;
80910;SDS011;70359;51.420;7.032;2023-11-21T14:19:17;7.1;;;5.5;;
80910;SDS011;70359;51.420;7.032;2023-11-21T14:21:42;7.7;;;6.1;;
80910;SDS011;70359;51.420;7.032;2023-11-21T14:24:11;7.7;;;6.1;;
80910;SDS011;70359;51.420;7.032;2023-11-21T14:26:32;5.8;;;5.2;;
80910;SDS011;70359;51.420;7.032;2023-11-21T14:28:57;5.8;;;5.2;;
80910;SDS011;70359;51.420;7.032;2023-11-21T14:31:22;6.1;;;4.7;;
80910;SDS011;70359;51.420;7.032;2023-11-21T14:33:51;6.1;;;4.7;;
80910;SDS011;70359;51.420;7.032;2023-11-21T14:36:12;7.2;;;5.2;;
80910;SDS011;70359;51.420;7.032;2023-11-21T14:38:37;7.2;;;5.2;;
80910;SDS011;70359;51.420;7.032;2023-11-21T14:41:02;8.1;;;5.7;;
80910;SDS011;70359;51.420;7.032;2023-11-21T14:43:27;8.1;;;5.7;;
80910;SDS011;70359;51.420;7.032;2023-11-21T14:45:52;5.4;;;4.5;;
80910;SDS011;70359;51.420;7.032;2023-11-21T14:48:17;5.4;;;4.5;;
80910;SDS011;70359;51.420;7.032;2023-11-21T14:50:42;6.6;;;5;;
80910;SDS011;70359;51.420;7.032;2023-11-21T14:53:07;6.6;;;5;;
80910;SDS011;70359;51.420;7.032;2023-11-21T14:55:32;5.4;;;4.4;;
80910;SDS011;70359;51.420;7.032;2023-11-21T14:58:01;5.4;;;4.4;;
80910;SDS011;70359;51.420;7.032;2023-11-21T15:00:22;5.6;;;4.4;;